Scroll down
FLIGHT INFORMATION
Cathay Pacific

CPA84

At Arrival Gate

VHHH
 KLAX
DATE: 2019-01-14
GATE:  -
GATE DEPARTURE: 00:03
TAKEOFF: 00:15
DATE: 2019-01-14
GATE: S1
LANDING: 12:00
GATE ARRIVAL: 12:05
FLIGHT DATA
Crew: 
Speed: 
515 kts
Altitude: 
39,013 ft
Stage Length: 
6,298.3 nm
Block Time: 
12 hrs
Flight Time: 
11.8 hrs
Fuel Used: 
269,313 lb
Cleared Route: PORPA TD OCEAN RASSE CONGA ENVAR DADON EXTRA RENOT TONGA TOROX ANLOT PILOX SANAS KUDOS LEKOS MORSU MOLKA MAMOD MUMBA MELEN MOMPA MIDAI MADOG MEXIR IMPAL OTOWA BILLY TAERU BUNGU BAFFY CHEVY SYOYU GYANG NISMO VACKY KENTO SEALS 36E50 36E60 36E70 37E80 38N70 39N60 40N50 40N40 39N30 DACEM PAINT PIRAT BURGL DOUIT CROWY MUPTT MDOTS GRIPR BIKNG RUNNN IRNMN SYMON BAYST JUUSE CLIFY DAHJR GADDO
TRACK DATA
50,000 ft 1,000 kts
AIRCRAFT INFO AND CUMULATIVE STATS
Aircraft Type: 
B744ERF
Registration: 
SELCAL: 
QSBP
MSN/LN: 
37299 / 1404
Operator: 
Total Flights: 
4
Total Block Time: 
42.8 hrs
Total Flight Time: 
41.7 hrs
Total Fuel Time: 
1,008,100 lb
DATALINK LOG | Newest first | Current as of: 2021-01-20 23:18:25
LABEL SEQUENCE CONTENT Dn/Up
QD054412:05 57.9▼ Dn
QC005012:00▼ Dn
2U4533KLAX 141053Z 08006KT 10SM FEW060 SCT150 BKN200 13/06 A3000 RMK AO2 SLP157 T01280056▲ Up
2S4234KLAX▼ Dn
GA4431CARGO STAND S1▲ Up
GR4222KLAX 11:57 MAAS YP/UM WCHR/S/C HI-VAL NO▼ Dn
QB150000:15▼ Dn
QA031800:03 327.2▼ Dn
2U4945VHHH 132330Z 08012KT 060V130 8000 FEW012 SCT035 18/16 Q1019 NOSIG▲ Up
2S4746VHHH▼ Dn
Q04743[LINK ACK]▲ Up
Q04521[LINK TEST]▼ Dn


AIRCRAFT HISTORY
FLIGHT DATE FLIGHT NO. ORIGIN DESTINATION CLEARED ROUTE BLOCK TIME FLIGHT TIME FUEL USED PILOT
2021-01-02CPA102WSSS KSAN WSSS TOMAN VERIN LUSMO AKMON UDOSI ALDAS AGSAM ANOKI ARESI AKOTA AVMUP ALDIS ABVAR MEVIN MAGMA SADEK KAZIK AMMEK AZAMA ONC OLDUP 32E40 36E50 40E60 43E70 45E80 46N70 46N60 45N50 43N40 40N30 ALCOA AVE DERBB REYES FIM LAX KSAN13.9 hrs13.6 hrs333,488 lbMarc Ehnle
2020-09-09CPA2075VHHH WSSS VHHH PECAN LEMON EPDOS ENBOK EPKAL EGEMU EXOTO VEPAM KARAN SOSPA PTH RUTIT ELSAS CN ESPOB ESBUM ELALO WSSS3.6 hrs3.2 hrs87,336 lbZsolt Szivak
2019-08-27CPA83KLAX VHHH KLAX HIIPR EVOSE MKGEE DARRK SUMMR RIZIN MQO AUDIA 36N30 37N40 37N50 36N60 34N70 32E80 30E70 28E60 27E50 25E40 TUNTO GUMBO HCN PARPA GRADY WP521 QUOTA CYRUS COMBO DADON ELATO MAGOG ENPET FISHA ABBEY MUSEL TAMAR TD GUAVA SOKOE LIMES VHHH13.6 hrs13.2 hrs317,963 lbKyle Rodgers
2019-01-14CPA84VHHH KLAX PORPA TD OCEAN RASSE CONGA ENVAR DADON EXTRA RENOT TONGA TOROX ANLOT PILOX SANAS KUDOS LEKOS MORSU MOLKA MAMOD MUMBA MELEN MOMPA MIDAI MADOG MEXIR IMPAL OTOWA BILLY TAERU BUNGU BAFFY CHEVY SYOYU GYANG NISMO VACKY KENTO SEALS 36E50 36E60 36E70 37E80 38N70 39N60 40N50 40N40 39N30 DACEM PAINT PIRAT BURGL DOUIT CROWY MUPTT MDOTS GRIPR BIKNG RUNNN IRNMN SYMON BAYST JUUSE CLIFY DAHJR GADDO12 hrs11.8 hrs269,313 lbKyle Rodgers